Chebanse, IL (60922)

5:48 PM CST on January 25, 2015 (GMT -0600)
Greater Kankakee | Change Station
CLOSE
Current Station
Airport
Location: Kankakee,
Elevation: 630 ft
Nearby Weather Stations

Elev 630 ft 41.07 °N, 87.85 °W | Updated 13 minutes ago

Snow
Snow
28 °F
Feels Like 15 °F
N
20
Wind Variable Wind from NNE
Gusts 28 mph

Today
High -- | Low -- °F
--% Chance of Precip.
Yesterday
High -- | Low -- °F
Precip. -- in
7:08 AM 4:59 PM
Waxing Crescent, 37% visible
Pressure 29.88 in
Visibility 10.0 miles
Clouds Scattered Clouds 1400 ft
Overcast 4300 ft
Windchill 15 °F
Dew Point 25 °F
Humidity 86%
Rainfall 0.40 in
Snow Depth Not available.
UV 0 out of 12
Pollen .10 out of 12
Air Quality Not available.
Flu Activity Not available.
METAR KIKK 252335Z AUTO 02017G24KT 10SM SCT014 OVC043 M02/M04 A2988 RMK AO2 T10201040

More Conditions Fewer Conditions

Pressure 29.88 in
Visibility 10.0 miles
Clouds Scattered Clouds 1400 ft
Overcast 4300 ft
Windchill 15 °F
Dew Point 25 °F
Humidity 86%
Rainfall 0.40 in
Snow Depth Not available.
UV 0 out of 12
Pollen .10 out of 12
Air Quality Not available.
Flu Activity Not available.
METAR KIKK 252335Z AUTO 02017G24KT 10SM SCT014 OVC043 M02/M04 A2988 RMK AO2 T10201040

More Conditions Fewer Conditions

10-Day Weather Forecast

Almanac

Astronomy

Jan. 25, 2015 Rise Set
Actual Time
Civil Twilight
Nautical Twilight
Astronomical Twilight
Moon
Length of Visible Light
Length of Day
Tomorrow will be .
, % of the Moon is Illuminated

Today's Extremes

State Highs State Lows

Community

WunderPhotos

Upload Photos

1,790,048 photos uploaded!

WunderBlogs® & News

Nearby

Air Quality

  Air Quality AQ Index Pollutant
Not available.

Snow Depth

Station Depth Elevation

Earthquake Activity

City Distance Mag. Time & Date
Minimum magnitude displayed is 2.5.

Coastal Water Temperatures

Place Temperature

Nearby Weather Stations